createdAt,value
2023-07-02T00:00:44.956Z,97.60
2023-07-02T00:10:49.638Z,98.33
2023-07-02T00:20:52.837Z,98.00
2023-07-02T00:30:57.276Z,97.53
2023-07-02T00:41:00.697Z,97.13
2023-07-02T00:51:05.381Z,97.17
2023-07-02T01:01:08.694Z,97.73
2023-07-02T01:11:13.252Z,96.81
2023-07-02T01:21:17.734Z,98.26
2023-07-02T01:31:20.534Z,99.67
2023-07-02T01:41:24.887Z,99.48
2023-07-02T01:51:27.902Z,100.00
2023-07-02T02:01:33.980Z,100.00
2023-07-02T02:11:37.287Z,100.00
2023-07-02T02:21:41.808Z,100.00
2023-07-02T02:31:44.929Z,100.00
2023-07-02T02:41:49.789Z,100.00
2023-07-02T02:51:56.804Z,100.00
2023-07-02T03:02:01.622Z,100.00
2023-07-02T03:12:05.598Z,100.00
2023-07-02T03:22:10.112Z,100.00
2023-07-02T03:32:13.174Z,100.00
2023-07-02T03:42:18.317Z,100.00
2023-07-02T03:52:21.398Z,100.00
2023-07-02T04:02:25.915Z,100.00
2023-07-02T04:12:28.949Z,98.96
2023-07-02T04:22:33.485Z,98.91
2023-07-02T04:32:36.611Z,98.87
2023-07-02T04:42:42.216Z,98.22
2023-07-02T04:52:45.594Z,96.69
2023-07-02T05:02:50.054Z,93.71
2023-07-02T05:12:53.238Z,89.82
2023-07-02T05:22:57.624Z,84.16
2023-07-02T05:33:00.499Z,81.35
2023-07-02T05:43:05.205Z,80.13
2023-07-02T05:53:08.277Z,77.50
2023-07-02T06:03:16.607Z,74.38
2023-07-02T06:13:19.691Z,73.69
2023-07-02T06:23:24.276Z,72.30
2023-07-02T06:33:27.287Z,70.44
2023-07-02T06:43:31.629Z,70.43
2023-07-02T06:53:34.714Z,68.39
2023-07-02T07:03:39.110Z,67.38
2023-07-02T07:13:42.651Z,67.53
2023-07-02T07:23:47.127Z,63.52
2023-07-02T07:33:50.380Z,62.89
2023-07-02T07:43:54.803Z,63.89
2023-07-02T07:53:57.938Z,64.05
2023-07-02T08:04:02.566Z,62.55
2023-07-02T08:14:05.940Z,57.57
2023-07-02T08:24:10.438Z,57.29
2023-07-02T08:34:13.377Z,55.86
2023-07-02T08:44:22.251Z,53.00
2023-07-02T08:54:25.237Z,52.11
2023-07-02T09:04:30.303Z,52.40
2023-07-02T09:14:34.011Z,51.17
2023-07-02T09:24:38.322Z,52.78
2023-07-02T09:34:43.047Z,51.00
2023-07-02T09:44:48.437Z,51.86
2023-07-02T09:54:51.544Z,51.76
2023-07-02T10:04:58.171Z,52.37
2023-07-02T10:15:01.472Z,52.35
2023-07-02T10:25:06.526Z,54.68
2023-07-02T10:35:16.549Z,53.06
2023-07-02T10:45:21.896Z,51.58
2023-07-02T10:55:26.556Z,52.33
2023-07-02T11:05:31.105Z,52.66
2023-07-02T11:15:38.390Z,52.74
2023-07-02T11:25:42.731Z,55.34
2023-07-02T11:35:45.920Z,55.71
2023-07-02T11:45:50.877Z,54.64
2023-07-02T11:55:54.126Z,50.89
2023-07-02T12:05:58.471Z,49.76
2023-07-02T12:16:01.875Z,48.24
2023-07-02T12:26:06.409Z,47.68
2023-07-02T12:36:09.459Z,44.02
2023-07-02T12:46:14.788Z,43.22
2023-07-02T12:56:18.102Z,42.14
2023-07-02T13:06:22.519Z,38.52
2023-07-02T13:16:25.983Z,38.88
2023-07-02T13:26:30.380Z,41.42
2023-07-02T13:36:33.607Z,40.06
2023-07-02T13:46:38.055Z,40.27
2023-07-02T13:56:41.206Z,38.83
2023-07-02T14:06:46.061Z,37.28
2023-07-02T14:16:49.161Z,39.21
2023-07-02T14:26:53.764Z,36.67
2023-07-02T14:36:58.191Z,37.00
2023-07-02T14:47:02.850Z,36.01
2023-07-02T14:57:06.705Z,35.21
2023-07-02T15:07:11.108Z,35.50
2023-07-02T15:17:14.191Z,36.47
2023-07-02T15:27:18.601Z,38.32
2023-07-02T15:37:21.614Z,38.96
2023-07-02T15:47:26.418Z,41.11
2023-07-02T15:57:29.632Z,41.34
2023-07-02T16:07:33.806Z,41.57
2023-07-02T16:17:37.132Z,42.09
2023-07-02T16:27:47.460Z,42.76
2023-07-02T16:37:53.596Z,43.33
2023-07-02T16:47:58.743Z,42.17
2023-07-02T16:58:02.501Z,43.22
2023-07-02T17:08:07.159Z,43.01
2023-07-02T17:18:10.326Z,45.11
2023-07-02T17:28:14.921Z,45.44
2023-07-02T17:38:18.004Z,46.55
2023-07-02T17:48:25.842Z,47.74
2023-07-02T17:58:28.904Z,50.92
2023-07-02T18:08:33.389Z,50.71
2023-07-02T18:18:36.517Z,51.83
2023-07-02T18:28:41.071Z,53.35
2023-07-02T18:38:44.231Z,54.43
2023-07-02T18:48:48.693Z,55.27
2023-07-02T18:58:51.928Z,56.25
2023-07-02T19:08:56.412Z,57.89
2023-07-02T19:18:59.572Z,58.81
2023-07-02T19:29:04.410Z,60.15
2023-07-02T19:39:07.735Z,61.19
2023-07-02T19:49:12.375Z,61.66
2023-07-02T19:59:15.532Z,62.55
2023-07-02T20:09:19.891Z,61.50
2023-07-02T20:19:22.892Z,60.08
2023-07-02T20:29:27.427Z,59.03
2023-07-02T20:39:30.544Z,59.26
2023-07-02T20:49:35.011Z,60.08
2023-07-02T20:59:38.060Z,61.78
2023-07-02T21:09:42.452Z,63.92
2023-07-02T21:19:45.256Z,63.27
2023-07-02T21:29:49.771Z,64.71
2023-07-02T21:39:52.711Z,63.55
2023-07-02T21:49:57.084Z,64.09
2023-07-02T22:00:00.162Z,63.94
2023-07-02T22:10:05.472Z,64.57
2023-07-02T22:20:12.401Z,65.51
2023-07-02T22:30:16.952Z,66.49
2023-07-02T22:40:19.954Z,67.83
2023-07-02T22:50:24.532Z,68.62
2023-07-02T23:00:27.345Z,69.45
2023-07-02T23:10:32.203Z,70.17
2023-07-02T23:20:37.895Z,70.44
2023-07-02T23:30:43.072Z,71.34
2023-07-02T23:40:46.176Z,71.86
2023-07-02T23:50:50.663Z,72.04
